createdAt,value
2018-09-01T00:00:39.303Z,12.5
2018-09-01T00:01:41.092Z,12.5
2018-09-01T00:02:42.638Z,12.5
2018-09-01T00:03:44.071Z,12.5
2018-09-01T00:04:45.508Z,12.5
2018-09-01T00:05:48.181Z,12.5
2018-09-01T00:06:49.602Z,12.5
2018-09-01T00:07:51.274Z,12.5
2018-09-01T00:08:52.679Z,12.5
2018-09-01T00:09:54.352Z,12.5
2018-09-01T00:10:55.773Z,12.4
2018-09-01T00:11:57.180Z,12.4
2018-09-01T00:12:58.676Z,12.2
2018-09-01T00:14:00.503Z,12.3
2018-09-01T00:15:01.914Z,12.3
2018-09-01T00:16:03.478Z,12.3
2018-09-01T00:17:04.893Z,12.2
2018-09-01T00:18:06.493Z,12.2
2018-09-01T00:19:07.892Z,12.3
2018-09-01T00:20:09.575Z,12.3
2018-09-01T00:21:10.999Z,12.3
2018-09-01T00:22:12.662Z,12.3
2018-09-01T00:23:14.065Z,12.3
2018-09-01T00:24:15.746Z,12.3
2018-09-01T00:25:17.528Z,12.3
2018-09-01T00:26:19.070Z,12.3
2018-09-01T00:27:20.486Z,12.2
2018-09-01T00:28:22.151Z,12.2
2018-09-01T00:29:23.552Z,12.2
2018-09-01T00:30:25.225Z,12.2
2018-09-01T00:31:26.688Z,12.2
2018-09-01T00:32:28.294Z,12.2
2018-09-01T00:33:29.738Z,12.2
2018-09-01T00:34:31.380Z,12.2
2018-09-01T00:35:32.782Z,12.1
2018-09-01T00:36:34.476Z,12.1
2018-09-01T00:37:35.881Z,12.1
2018-09-01T00:38:37.293Z,12.1
2018-09-01T00:39:38.819Z,12.1
2018-09-01T00:40:40.225Z,12.1
2018-09-01T00:41:41.629Z,12.1
2018-09-01T00:42:43.313Z,12.1
2018-09-01T00:43:44.716Z,12.1
2018-09-01T00:44:46.136Z,12.1
2018-09-01T00:45:47.634Z,12.1
2018-09-01T00:46:49.039Z,12.1
2018-09-01T00:47:50.457Z,12.1
2018-09-01T00:48:51.958Z,12.1
2018-09-01T00:49:53.355Z,12.1
2018-09-01T00:50:55.043Z,12.0
2018-09-01T00:51:56.450Z,12.0
2018-09-01T00:52:57.882Z,12.0
2018-09-01T00:53:59.361Z,12.1
2018-09-01T00:55:00.762Z,12.0
2018-09-01T00:56:02.173Z,12.0
2018-09-01T00:57:03.702Z,12.0
2018-09-01T00:58:05.082Z,12.0
2018-09-01T00:59:06.484Z,12.0
2018-09-01T01:00:08.007Z,12.0
2018-09-01T01:01:09.411Z,12.0
2018-09-01T01:02:10.814Z,11.9
2018-09-01T01:03:12.325Z,11.9
2018-09-01T01:04:13.731Z,11.9
2018-09-01T01:05:15.410Z,11.9
2018-09-01T01:06:16.812Z,12.0
2018-09-01T01:07:18.261Z,11.9
2018-09-01T01:08:19.751Z,11.9
2018-09-01T01:09:21.190Z,11.9
2018-09-01T01:10:22.587Z,11.9
2018-09-01T01:11:24.290Z,11.8
2018-09-01T01:12:25.693Z,11.9
2018-09-01T01:13:27.094Z,11.9
2018-09-01T01:14:28.614Z,11.9
2018-09-01T01:15:29.980Z,11.8
2018-09-01T01:16:31.405Z,11.7
2018-09-01T01:17:32.908Z,11.8
2018-09-01T01:18:34.303Z,11.9
2018-09-01T01:19:35.991Z,11.8
2018-09-01T01:20:37.384Z,11.8
2018-09-01T01:21:39.132Z,11.8
2018-09-01T01:22:40.551Z,11.8
2018-09-01T01:23:42.176Z,11.8
2018-09-01T01:24:43.579Z,11.7
2018-09-01T01:25:45.244Z,11.7
2018-09-01T01:26:47.025Z,11.7
2018-09-01T01:27:48.426Z,11.8
2018-09-01T01:28:50.020Z,11.7
2018-09-01T01:29:51.429Z,11.7
2018-09-01T01:30:52.856Z,11.7
2018-09-01T01:31:54.510Z,11.7
2018-09-01T01:32:55.904Z,11.6
2018-09-01T01:33:57.308Z,11.7
2018-09-01T01:34:58.824Z,11.7
2018-09-01T01:36:00.226Z,11.6
2018-09-01T01:37:01.637Z,11.7
2018-09-01T01:38:03.519Z,11.5
2018-09-01T01:39:04.931Z,11.5
2018-09-01T01:40:06.443Z,11.5
2018-09-01T01:41:07.884Z,11.5
2018-09-01T01:42:09.525Z,11.6
2018-09-01T01:43:10.964Z,11.6
2018-09-01T01:44:12.610Z,11.5
2018-09-01T01:45:14.014Z,11.5
2018-09-01T01:46:15.695Z,11.5
2018-09-01T01:47:17.099Z,11.5
2018-09-01T01:48:19.210Z,11.5
2018-09-01T01:49:20.621Z,11.5
2018-09-01T01:50:22.276Z,11.5
2018-09-01T01:51:23.681Z,11.5
2018-09-01T01:52:25.359Z,11.4
2018-09-01T01:53:26.792Z,11.4
2018-09-01T01:54:28.192Z,11.4
2018-09-01T01:55:30.058Z,11.4
2018-09-01T01:56:31.463Z,11.4
2018-09-01T01:57:33.045Z,11.4
2018-09-01T01:58:34.838Z,11.5
2018-09-01T01:59:36.200Z,11.4
2018-09-01T02:00:37.638Z,11.4
2018-09-01T02:01:39.141Z,11.4
2018-09-01T02:02:40.555Z,11.4
2018-09-01T02:03:41.957Z,11.3
2018-09-01T02:04:43.463Z,11.3
2018-09-01T02:05:44.868Z,11.4
2018-09-01T02:06:46.272Z,11.4
2018-09-01T02:07:48.808Z,11.4
2018-09-01T02:08:50.224Z,11.3
2018-09-01T02:09:52.005Z,11.3
2018-09-01T02:10:53.538Z,11.3
2018-09-01T02:11:54.943Z,11.3
2018-09-01T02:12:56.351Z,11.3
2018-09-01T02:13:57.870Z,11.3
2018-09-01T02:14:59.294Z,11.3
2018-09-01T02:16:00.943Z,11.3
2018-09-01T02:17:02.345Z,11.3
2018-09-01T02:18:03.823Z,11.3
2018-09-01T02:19:05.229Z,11.4
2018-09-01T02:20:06.928Z,11.3
2018-09-01T02:21:08.309Z,11.3
2018-09-01T02:22:09.794Z,11.3
2018-09-01T02:23:11.195Z,11.2
2018-09-01T02:24:12.599Z,11.3
2018-09-01T02:25:14.131Z,11.3
2018-09-01T02:26:15.515Z,11.2
2018-09-01T02:27:16.921Z,11.2
2018-09-01T02:28:18.442Z,11.2
2018-09-01T02:29:19.840Z,11.2
2018-09-01T02:30:21.242Z,11.2
2018-09-01T02:31:22.758Z,11.2
2018-09-01T02:32:24.206Z,11.2
2018-09-01T02:33:25.564Z,11.1
2018-09-01T02:34:27.105Z,11.1
2018-09-01T02:35:28.476Z,11.1
2018-09-01T02:36:29.964Z,11.2
2018-09-01T02:37:31.374Z,11.2
2018-09-01T02:38:33.042Z,11.1
2018-09-01T02:39:34.458Z,11.2
2018-09-01T02:40:35.930Z,11.1
2018-09-01T02:41:37.355Z,11.1
2018-09-01T02:42:39.017Z,11.1
2018-09-01T02:43:40.424Z,11.1
2018-09-01T02:44:41.827Z,11.0
2018-09-01T02:45:43.727Z,11.0
2018-09-01T02:46:45.519Z,11.1
2018-09-01T02:47:46.926Z,11.0
2018-09-01T02:48:48.473Z,11.0
2018-09-01T02:49:50.264Z,11.1
2018-09-01T02:50:51.668Z,11.1
2018-09-01T02:51:53.243Z,11.0
2018-09-01T02:52:54.639Z,11.0
2018-09-01T02:53:56.082Z,11.1
2018-09-01T02:54:57.732Z,11.1
2018-09-01T02:55:59.225Z,11.1
2018-09-01T02:57:00.646Z,11.0
2018-09-01T02:58:02.258Z,11.1
2018-09-01T02:59:03.673Z,10.9
2018-09-01T03:00:05.353Z,11.0
2018-09-01T03:01:06.780Z,11.0
2018-09-01T03:02:09.439Z,10.9
2018-09-01T03:03:10.855Z,10.9
2018-09-01T03:04:12.380Z,10.9
2018-09-01T03:05:13.782Z,10.9
2018-09-01T03:06:15.454Z,10.9
2018-09-01T03:07:16.857Z,10.9
2018-09-01T03:08:18.542Z,10.9
2018-09-01T03:09:19.946Z,10.8
2018-09-01T03:10:21.593Z,10.8
2018-09-01T03:11:22.993Z,10.8
2018-09-01T03:12:24.471Z,10.8
2018-09-01T03:13:25.868Z,10.9
2018-09-01T03:14:27.655Z,10.8
2018-09-01T03:15:29.206Z,10.8
2018-09-01T03:16:30.615Z,10.8
2018-09-01T03:17:32.021Z,10.8
2018-09-01T03:18:33.555Z,10.8
2018-09-01T03:19:34.979Z,10.8
2018-09-01T03:20:36.376Z,10.8
2018-09-01T03:21:38.050Z,10.8
2018-09-01T03:22:39.450Z,10.8
2018-09-01T03:23:40.868Z,10.8
2018-09-01T03:24:42.370Z,10.7
2018-09-01T03:25:43.795Z,10.8
2018-09-01T03:26:45.455Z,10.7
2018-09-01T03:27:46.861Z,10.7
2018-09-01T03:28:48.337Z,10.7
2018-09-01T03:29:49.740Z,10.7
2018-09-01T03:30:51.272Z,10.8
2018-09-01T03:31:52.687Z,10.7
2018-09-01T03:32:54.388Z,10.7
2018-09-01T03:33:55.791Z,10.7
2018-09-01T03:34:57.198Z,10.7
2018-09-01T03:35:58.827Z,10.7
2018-09-01T03:37:00.190Z,10.7
2018-09-01T03:38:01.606Z,10.7
2018-09-01T03:39:03.153Z,10.7
2018-09-01T03:40:04.551Z,10.7
2018-09-01T03:41:05.949Z,10.6
2018-09-01T03:42:07.471Z,10.7
2018-09-01T03:43:08.870Z,10.6
2018-09-01T03:44:10.272Z,10.6
2018-09-01T03:45:11.799Z,10.6
2018-09-01T03:46:13.196Z,10.6
2018-09-01T03:47:14.599Z,10.7
2018-09-01T03:48:16.113Z,10.7
2018-09-01T03:49:17.731Z,10.6
2018-09-01T03:50:19.152Z,10.6
2018-09-01T03:51:20.639Z,10.5
2018-09-01T03:52:22.066Z,10.6
2018-09-01T03:53:23.839Z,10.6
2018-09-01T03:54:25.383Z,10.7
2018-09-01T03:55:26.784Z,10.5
2018-09-01T03:56:28.839Z,10.6
2018-09-01T03:57:30.242Z,10.6
2018-09-01T03:58:31.748Z,10.5
2018-09-01T03:59:33.153Z,10.4
2018-09-01T04:00:34.631Z,10.6
2018-09-01T04:01:36.038Z,10.5
2018-09-01T04:02:37.510Z,10.5
2018-09-01T04:03:38.910Z,10.4
2018-09-01T04:04:40.316Z,10.5
2018-09-01T04:05:41.829Z,10.4
2018-09-01T04:06:43.232Z,10.4
2018-09-01T04:07:44.637Z,10.4
2018-09-01T04:08:46.152Z,10.4
2018-09-01T04:09:47.553Z,10.4
2018-09-01T04:10:48.958Z,10.3
2018-09-01T04:11:50.475Z,10.5
2018-09-01T04:12:51.874Z,10.4
2018-09-01T04:13:53.279Z,10.4
2018-09-01T04:14:54.795Z,10.5
2018-09-01T04:15:56.194Z,10.3
2018-09-01T04:16:57.595Z,10.4
2018-09-01T04:17:59.379Z,10.4
2018-09-01T04:19:00.784Z,10.4
2018-09-01T04:20:02.510Z,10.4
2018-09-01T04:21:04.052Z,10.3
2018-09-01T04:22:05.457Z,10.3
2018-09-01T04:23:06.865Z,10.3
2018-09-01T04:24:08.591Z,10.3
2018-09-01T04:25:10.299Z,10.3
2018-09-01T04:26:11.913Z,10.3
2018-09-01T04:27:13.314Z,10.3
2018-09-01T04:28:14.956Z,10.3
2018-09-01T04:29:16.362Z,10.3
2018-09-01T04:30:18.589Z,10.3
2018-09-01T04:31:20.735Z,10.2
2018-09-01T04:32:23.160Z,10.2
2018-09-01T04:33:24.815Z,10.3
2018-09-01T04:34:27.136Z,10.3
2018-09-01T04:35:28.536Z,10.2
2018-09-01T04:36:29.933Z,10.1
2018-09-01T04:37:31.412Z,10.2
2018-09-01T04:38:32.813Z,10.2
2018-09-01T04:39:34.238Z,10.1
2018-09-01T04:40:35.728Z,10.2
2018-09-01T04:41:37.165Z,10.1
2018-09-01T04:42:38.575Z,10.2
2018-09-01T04:43:40.049Z,10.1
2018-09-01T04:44:41.446Z,10.1
2018-09-01T04:45:42.864Z,10.0
2018-09-01T04:46:44.354Z,10.1
2018-09-01T04:47:46.058Z,10.1
2018-09-01T04:48:47.702Z,10.1
2018-09-01T04:49:49.108Z,10.2
2018-09-01T04:50:50.743Z,10.1
2018-09-01T04:51:52.142Z,10.2
2018-09-01T04:52:53.628Z,10.2
2018-09-01T04:53:55.033Z,10.1
2018-09-01T04:54:56.507Z,10.2
2018-09-01T04:55:57.918Z,10.1
2018-09-01T04:56:59.408Z,10.1
2018-09-01T04:58:01.366Z,10.1
2018-09-01T04:59:02.902Z,10.0
2018-09-01T05:00:04.314Z,10.1
2018-09-01T05:01:06.116Z,10.1
2018-09-01T05:02:07.391Z,10.1
2018-09-01T05:03:09.050Z,10.1
2018-09-01T05:04:10.449Z,10.1
2018-09-01T05:05:12.524Z,10.1
2018-09-01T05:06:13.918Z,10.2
2018-09-01T05:07:15.427Z,10.1
2018-09-01T05:08:16.825Z,10.0
2018-09-01T05:09:18.305Z,10.1
2018-09-01T05:10:19.718Z,10.1
2018-09-01T05:11:21.125Z,10.1
2018-09-01T05:12:22.632Z,10.1
2018-09-01T05:13:24.484Z,10.1
2018-09-01T05:14:25.898Z,10.2
2018-09-01T05:15:27.384Z,10.1
2018-09-01T05:16:28.786Z,10.1
2018-09-01T05:17:30.198Z,10.2
2018-09-01T05:18:31.728Z,10.1
2018-09-01T05:19:33.133Z,10.0
2018-09-01T05:20:34.545Z,10.2
2018-09-01T05:21:36.009Z,10.1
2018-09-01T05:22:37.425Z,10.1
2018-09-01T05:23:38.822Z,10.0
2018-09-01T05:24:40.328Z,10.2
2018-09-01T05:25:41.773Z,10.1
2018-09-01T05:26:43.182Z,10.2
2018-09-01T05:27:44.687Z,10.2
2018-09-01T05:28:46.088Z,10.1
2018-09-01T05:29:47.507Z,10.3
2018-09-01T05:30:48.970Z,10.2
2018-09-01T05:31:50.382Z,10.3
2018-09-01T05:32:51.786Z,10.4
2018-09-01T05:33:53.292Z,10.4
2018-09-01T05:34:54.751Z,10.4
2018-09-01T05:35:56.155Z,10.4
2018-09-01T05:36:57.838Z,10.4
2018-09-01T05:37:59.236Z,10.4
2018-09-01T05:39:00.640Z,10.4
2018-09-01T05:40:02.139Z,10.6
2018-09-01T05:41:03.545Z,10.5
2018-09-01T05:42:05.035Z,10.5
2018-09-01T05:43:06.442Z,10.5
2018-09-01T05:44:08.131Z,10.6
2018-09-01T05:45:09.535Z,10.6
2018-09-01T05:46:11.192Z,10.6
2018-09-01T05:47:12.600Z,10.6
2018-09-01T05:48:14.276Z,10.7
2018-09-01T05:49:15.717Z,10.7
2018-09-01T05:50:17.163Z,10.7
2018-09-01T05:51:18.566Z,10.8
2018-09-01T05:52:19.974Z,10.9
2018-09-01T05:53:21.481Z,10.9
2018-09-01T05:54:22.902Z,10.9
2018-09-01T05:55:24.297Z,11.1
2018-09-01T05:56:25.835Z,10.9
2018-09-01T05:57:27.242Z,11.1
2018-09-01T05:58:28.889Z,11.2
2018-09-01T05:59:30.296Z,11.2
2018-09-01T06:00:31.811Z,11.2
2018-09-01T06:01:33.181Z,11.3
2018-09-01T06:02:34.597Z,11.4
2018-09-01T06:03:36.089Z,11.5
2018-09-01T06:04:37.497Z,11.5
2018-09-01T06:05:38.899Z,11.7
2018-09-01T06:06:40.419Z,11.8
2018-09-01T06:07:41.822Z,11.9
2018-09-01T06:08:43.241Z,12.1
2018-09-01T06:09:44.736Z,12.2
2018-09-01T06:10:46.158Z,12.3
2018-09-01T06:11:47.567Z,12.5
2018-09-01T06:12:49.054Z,12.7
2018-09-01T06:13:50.461Z,12.9
2018-09-01T06:14:51.930Z,13.1
2018-09-01T06:15:53.592Z,13.3
2018-09-01T06:16:55.001Z,13.4
2018-09-01T06:17:56.518Z,13.6
2018-09-01T06:18:58.105Z,13.9
2018-09-01T06:19:59.521Z,14.1
2018-09-01T06:21:00.937Z,14.3
2018-09-01T06:22:02.424Z,14.5
2018-09-01T06:23:03.870Z,14.6
2018-09-01T06:24:05.525Z,14.7
2018-09-01T06:25:06.945Z,14.9
2018-09-01T06:26:08.597Z,15.1
2018-09-01T06:27:10.008Z,15.2
2018-09-01T06:28:11.484Z,15.4
2018-09-01T06:29:12.887Z,15.6
2018-09-01T06:30:14.440Z,15.8
2018-09-01T06:31:15.725Z,16.0
2018-09-01T06:32:17.143Z,16.2
2018-09-01T06:33:18.718Z,16.2
2018-09-01T06:34:20.170Z,16.4
2018-09-01T06:35:21.545Z,16.6
2018-09-01T06:36:23.004Z,16.7
2018-09-01T06:37:24.452Z,16.8
2018-09-01T06:38:25.884Z,17.1
2018-09-01T06:39:27.325Z,17.2
2018-09-01T06:40:28.970Z,17.4
2018-09-01T06:41:30.384Z,17.4
2018-09-01T06:42:31.794Z,17.6
2018-09-01T06:43:33.292Z,17.7
2018-09-01T06:44:35.128Z,17.9
2018-09-01T06:45:36.540Z,18.0
2018-09-01T06:46:38.060Z,18.2
2018-09-01T06:47:39.470Z,18.3
2018-09-01T06:48:41.104Z,18.5
2018-09-01T06:49:42.723Z,18.7
2018-09-01T06:50:44.191Z,18.7
2018-09-01T06:51:45.686Z,18.9
2018-09-01T06:52:47.275Z,19.0
2018-09-01T06:53:48.708Z,19.2
2018-09-01T06:54:50.363Z,19.2
2018-09-01T06:55:51.772Z,19.5
2018-09-01T06:56:53.521Z,19.6
2018-09-01T06:57:54.962Z,19.7
2018-09-01T06:58:56.534Z,19.8
2018-09-01T06:59:57.944Z,19.9
2018-09-01T07:00:59.412Z,20.1
2018-09-01T07:02:00.820Z,20.2
2018-09-01T07:03:02.299Z,20.4
2018-09-01T07:04:03.710Z,20.4
2018-09-01T07:05:05.185Z,20.6
2018-09-01T07:06:06.599Z,20.7
2018-09-01T07:07:08.011Z,20.8
2018-09-01T07:08:09.502Z,21.0
2018-09-01T07:09:10.926Z,21.1
2018-09-01T07:10:12.336Z,21.2
2018-09-01T07:11:13.826Z,21.2
2018-09-01T07:12:15.233Z,21.3
2018-09-01T07:13:16.703Z,21.3
2018-09-01T07:14:18.137Z,21.3
2018-09-01T08:51:54.916Z,23.4
2018-09-01T08:52:56.470Z,23.5
2018-09-01T08:54:18.210Z,23.7
2018-09-01T08:55:19.649Z,23.9
2018-09-01T08:56:21.030Z,23.9
2018-09-01T08:57:22.525Z,24.2
2018-09-01T08:58:23.907Z,24.3
2018-09-01T08:59:25.392Z,24.3
2018-09-01T09:00:26.789Z,24.4
2018-09-01T09:01:28.323Z,24.4
2018-09-01T09:02:29.725Z,24.5
2018-09-01T09:03:31.148Z,24.5
2018-09-01T09:04:32.972Z,24.6
2018-09-01T09:05:34.463Z,24.7
2018-09-01T09:06:35.875Z,24.8
2018-09-01T09:07:37.716Z,24.8
2018-09-01T09:08:39.124Z,24.7
2018-09-01T09:09:40.632Z,24.6
2018-09-01T09:10:42.046Z,24.5
2018-09-01T09:11:43.578Z,24.2
2018-09-01T09:12:44.905Z,24.1
2018-09-01T09:13:46.390Z,23.9
2018-09-01T09:14:47.814Z,23.8
2018-09-01T09:15:49.248Z,23.8
2018-09-01T09:16:50.690Z,23.6
2018-09-01T09:17:52.130Z,23.6
2018-09-01T09:18:53.550Z,23.5
2018-09-01T09:19:54.959Z,23.5
2018-09-01T09:20:56.448Z,23.3
2018-09-01T09:21:57.858Z,23.4
2018-09-01T09:22:59.276Z,23.2
2018-09-01T09:24:00.802Z,23.2
2018-09-01T09:25:02.231Z,23.1
2018-09-01T09:26:03.675Z,23.1
2018-09-01T09:27:05.297Z,23.1
2018-09-01T09:28:06.706Z,22.9
2018-09-01T09:29:08.110Z,22.9
2018-09-01T09:30:09.618Z,22.9
2018-09-01T09:31:11.028Z,22.8
2018-09-01T09:32:12.495Z,22.9
2018-09-01T09:33:13.912Z,22.9
2018-09-01T09:34:15.384Z,22.8
2018-09-01T09:35:16.794Z,22.7
2018-09-01T09:36:18.263Z,22.8
2018-09-01T09:37:19.685Z,22.6
2018-09-01T09:38:21.156Z,22.7
2018-09-01T09:39:22.564Z,22.9
2018-09-01T09:40:23.967Z,22.8
2018-09-01T09:41:25.467Z,23.0
2018-09-01T09:42:26.879Z,23.0
2018-09-01T09:43:28.308Z,23.0
2018-09-01T09:44:29.787Z,22.9
2018-09-01T09:45:31.216Z,23.0
2018-09-01T09:46:32.669Z,23.1
2018-09-01T09:47:34.077Z,23.4
2018-09-01T09:48:35.489Z,23.6
2018-09-01T09:49:37.368Z,23.9
2018-09-01T09:50:38.776Z,24.4
2018-09-01T09:51:40.220Z,25.2
2018-09-01T09:52:41.744Z,25.9
2018-09-01T09:53:43.155Z,26.4
2018-09-01T09:54:44.553Z,27.0
2018-09-01T09:55:46.043Z,27.7
2018-09-01T09:56:47.459Z,28.8
2018-09-01T09:57:48.922Z,29.9
2018-09-01T09:58:50.336Z,31.2
2018-09-01T09:59:51.804Z,32.3
2018-09-01T10:00:53.230Z,32.4
2018-09-01T10:01:54.686Z,33.3
2018-09-01T10:02:56.096Z,32.7
2018-09-01T10:03:57.567Z,31.3
2018-09-01T10:04:58.974Z,29.9
2018-09-01T10:06:00.381Z,28.7
2018-09-01T10:07:01.899Z,27.9
2018-09-01T10:08:03.303Z,27.2
2018-09-01T10:09:04.727Z,26.7
2018-09-01T10:10:06.215Z,26.2
2018-09-01T10:11:08.095Z,25.8
2018-09-01T10:12:09.530Z,25.4
2018-09-01T10:13:10.938Z,25.1
2018-09-01T10:14:12.474Z,24.6
2018-09-01T10:15:13.853Z,24.2
2018-09-01T10:16:15.256Z,24.0
2018-09-01T10:17:16.666Z,23.7
2018-09-01T10:18:18.175Z,23.5
2018-09-01T10:19:19.586Z,23.5
2018-09-01T10:20:21.100Z,23.5
2018-09-01T10:21:22.493Z,23.7
2018-09-01T10:22:23.906Z,24.0
2018-09-01T10:23:25.579Z,24.0
2018-09-01T10:24:26.987Z,24.1
2018-09-01T10:25:28.509Z,24.4
2018-09-01T10:26:29.920Z,24.6
2018-09-01T10:27:31.543Z,25.1
2018-09-01T10:28:32.960Z,25.5
2018-09-01T10:29:34.355Z,25.6
2018-09-01T10:30:35.864Z,25.6
2018-09-01T10:31:37.269Z,25.6
2018-09-01T10:32:38.684Z,25.5
2018-09-01T10:33:40.182Z,25.4
2018-09-01T10:34:41.600Z,25.2
2018-09-01T10:35:43.027Z,24.9
2018-09-01T10:36:44.505Z,24.8
2018-09-01T10:37:45.921Z,24.4
2018-09-01T10:38:47.327Z,24.2
2018-09-01T10:39:48.829Z,23.9
2018-09-01T10:40:50.244Z,23.7
2018-09-01T10:41:51.708Z,23.5
2018-09-01T10:42:53.131Z,23.3
2018-09-01T10:43:54.607Z,23.1
2018-09-01T10:44:56.018Z,23.1
2018-09-01T10:45:57.477Z,23.0
2018-09-01T10:46:58.891Z,22.9
2018-09-01T10:48:00.361Z,23.1
2018-09-01T10:49:01.759Z,23.2
2018-09-01T10:50:03.242Z,23.3
2018-09-01T10:51:04.877Z,23.5
2018-09-01T10:52:06.290Z,23.6
2018-09-01T10:53:07.695Z,24.0
2018-09-01T10:54:09.201Z,24.1
2018-09-01T10:55:10.609Z,24.2
2018-09-01T10:56:12.093Z,24.0
2018-09-01T10:57:13.496Z,24.0
2018-09-01T10:58:14.977Z,24.0
2018-09-01T10:59:16.431Z,24.1
2018-09-01T11:00:17.842Z,24.1
2018-09-01T11:01:19.256Z,24.2
2018-09-01T11:02:20.720Z,24.1
2018-09-01T11:03:22.137Z,23.8
2018-09-01T11:04:23.615Z,23.7
2018-09-01T11:05:25.444Z,23.5
2018-09-01T11:06:26.894Z,23.5
2018-09-01T11:07:28.340Z,23.6
2018-09-01T11:08:29.776Z,23.4
2018-09-01T11:09:31.186Z,23.4
2018-09-01T11:10:32.654Z,23.3
2018-09-01T11:11:34.062Z,23.3
2018-09-01T11:12:35.535Z,23.3
2018-09-01T11:13:36.944Z,23.4
2018-09-01T11:14:38.350Z,23.4
2018-09-01T11:15:39.859Z,23.5
2018-09-01T11:16:41.265Z,23.6
2018-09-01T11:17:42.680Z,23.6
2018-09-01T11:18:44.192Z,23.8
2018-09-01T11:19:45.612Z,23.9
2018-09-01T11:20:47.078Z,24.0
2018-09-01T11:21:48.498Z,24.0
2018-09-01T11:22:49.927Z,24.0
2018-09-01T11:23:51.376Z,23.9
2018-09-01T11:24:52.786Z,23.6
2018-09-01T11:25:54.191Z,23.5
2018-09-01T11:26:55.701Z,23.4
2018-09-01T11:27:57.150Z,23.3
2018-09-01T11:28:58.571Z,23.2
2018-09-01T11:30:00.020Z,23.1
2018-09-01T11:31:01.437Z,23.0
2018-09-01T11:32:02.853Z,23.0
2018-09-01T11:33:04.342Z,22.9
2018-09-01T11:34:05.781Z,22.9
2018-09-01T11:35:07.159Z,22.9
2018-09-01T11:36:08.686Z,22.8
2018-09-01T11:37:10.084Z,22.8
2018-09-01T11:38:11.585Z,22.7
2018-09-01T11:39:12.990Z,22.7
2018-09-01T11:40:14.417Z,22.8
2018-09-01T11:41:15.869Z,22.7
2018-09-01T11:42:17.286Z,22.8
2018-09-01T11:43:18.873Z,22.8
2018-09-01T11:44:20.187Z,22.8
2018-09-01T11:45:21.601Z,22.9
2018-09-01T11:46:23.006Z,22.9
2018-09-01T11:47:24.504Z,22.9
2018-09-01T11:48:25.925Z,22.9
2018-09-01T11:49:27.384Z,22.9
2018-09-01T11:50:28.824Z,23.0
2018-09-01T11:51:30.271Z,23.1
2018-09-01T11:52:31.694Z,23.3
2018-09-01T11:53:33.180Z,23.4
2018-09-01T11:54:34.558Z,23.5
2018-09-01T11:55:36.038Z,23.4
2018-09-01T11:56:37.449Z,23.4
2018-09-01T11:57:38.927Z,23.3
2018-09-01T11:58:40.336Z,23.3
2018-09-01T11:59:41.801Z,23.2
2018-09-01T12:00:43.206Z,23.1
2018-09-01T12:01:44.624Z,22.9
2018-09-01T12:02:46.115Z,23.0
2018-09-01T12:03:47.546Z,22.8
2018-09-01T12:04:48.932Z,22.7
2018-09-01T12:05:50.436Z,22.4
2018-09-01T12:06:51.863Z,22.4
2018-09-01T12:07:53.523Z,22.2
2018-09-01T12:08:55.002Z,22.0
2018-09-01T12:09:56.407Z,22.0
2018-09-01T12:10:57.847Z,21.9
2018-09-01T12:11:59.513Z,21.8
2018-09-01T12:13:00.899Z,21.9
2018-09-01T12:14:02.392Z,21.9
2018-09-01T12:15:03.784Z,22.0
2018-09-01T12:16:05.250Z,22.1
2018-09-01T12:17:08.245Z,22.1
2018-09-01T12:18:10.828Z,22.2
2018-09-01T12:19:13.140Z,22.4
2018-09-01T12:20:15.721Z,22.5
2018-09-01T12:21:17.633Z,22.7
2018-09-01T12:22:19.625Z,22.7
2018-09-01T12:23:21.628Z,22.8
2018-09-01T12:24:22.995Z,22.9
2018-09-01T12:25:24.406Z,23.1
2018-09-01T12:26:26.002Z,23.1
2018-09-01T12:27:27.409Z,23.2
2018-09-01T12:28:28.841Z,23.2
2018-09-01T12:29:30.324Z,23.1
2018-09-01T12:30:31.734Z,23.2
2018-09-01T12:31:33.177Z,23.1
2018-09-01T12:32:34.645Z,23.0
2018-09-01T12:33:36.062Z,23.0
2018-09-01T12:34:37.526Z,22.9
2018-09-01T12:35:38.931Z,22.9
2018-09-01T12:36:40.408Z,23.0
2018-09-01T12:37:41.821Z,23.0
2018-09-01T12:38:43.289Z,22.9
2018-09-01T12:39:44.707Z,22.8
2018-09-01T12:40:46.174Z,22.6
2018-09-01T12:41:47.567Z,22.5
2018-09-01T12:42:48.979Z,22.3
2018-09-01T12:43:50.490Z,22.1
2018-09-01T12:44:51.895Z,22.0
2018-09-01T12:45:53.378Z,21.8
2018-09-01T12:46:55.031Z,21.6
2018-09-01T12:47:56.439Z,21.5
2018-09-01T12:48:57.843Z,21.4
2018-09-01T12:49:59.337Z,21.5
2018-09-01T12:51:01.138Z,21.5
2018-09-01T12:52:02.548Z,21.6
2018-09-01T12:53:04.111Z,21.7
2018-09-01T12:54:05.487Z,21.9
2018-09-01T12:55:07.058Z,22.0
2018-09-01T12:56:08.598Z,22.1
2018-09-01T12:57:10.004Z,22.3
2018-09-01T12:58:11.476Z,22.4
2018-09-01T12:59:13.079Z,22.5
2018-09-01T13:00:14.681Z,22.5
2018-09-01T13:01:16.094Z,22.4
2018-09-01T13:02:17.648Z,22.3
2018-09-01T13:03:19.054Z,22.1
2018-09-01T13:04:20.537Z,22.0
2018-09-01T13:05:21.942Z,22.0
2018-09-01T13:06:23.419Z,21.9
2018-09-01T13:07:24.840Z,21.7
2018-09-01T13:08:26.306Z,21.5
2018-09-01T13:09:27.711Z,21.4
2018-09-01T13:10:29.200Z,21.4
2018-09-01T13:11:30.601Z,21.3
2018-09-01T13:12:32.050Z,21.2
2018-09-01T13:13:33.452Z,21.3
2018-09-01T13:14:34.949Z,21.2
2018-09-01T13:15:36.354Z,21.1
2018-09-01T13:16:37.761Z,21.1
2018-09-01T13:17:40.276Z,21.1
2018-09-01T13:18:41.687Z,21.0
2018-09-01T13:19:43.135Z,21.0
2018-09-01T13:20:44.598Z,20.9
2018-09-01T13:21:46.002Z,20.8
2018-09-01T13:22:47.518Z,20.8
2018-09-01T13:23:48.927Z,20.7
2018-09-01T13:24:50.359Z,20.6
2018-09-01T13:25:51.768Z,20.6
2018-09-01T13:26:53.263Z,20.5
2018-09-01T13:27:54.886Z,20.5
2018-09-01T13:28:56.295Z,20.4
2018-09-01T13:29:57.702Z,20.5
2018-09-01T13:30:59.228Z,20.4
2018-09-01T13:32:00.657Z,20.5
2018-09-01T13:33:02.085Z,20.4
2018-09-01T13:34:03.495Z,20.4
2018-09-01T13:35:04.969Z,20.5
2018-09-01T13:36:06.377Z,20.5
2018-09-01T13:37:07.778Z,20.6
2018-09-01T13:38:09.289Z,20.5
2018-09-01T13:39:10.694Z,20.5
2018-09-01T13:40:12.276Z,20.5
2018-09-01T13:41:13.743Z,20.6
2018-09-01T13:42:15.149Z,20.5
2018-09-01T13:43:16.556Z,20.4
2018-09-01T13:44:18.129Z,20.5
2018-09-01T13:45:19.586Z,20.4
2018-09-01T13:46:20.999Z,20.4
2018-09-01T13:47:22.468Z,20.4
2018-09-01T13:48:23.865Z,20.3
2018-09-01T13:49:25.292Z,20.3
2018-09-01T13:50:26.838Z,20.3
2018-09-01T13:51:28.281Z,20.3
2018-09-01T13:52:29.706Z,20.3
2018-09-01T13:53:31.303Z,20.4
2018-09-01T13:54:32.721Z,20.3
2018-09-01T13:55:34.144Z,20.3
2018-09-01T13:56:35.550Z,20.3
2018-09-01T13:57:36.956Z,20.3
2018-09-01T13:58:39.534Z,20.2
2018-09-01T13:59:40.937Z,20.3
2018-09-01T14:00:42.340Z,20.3
2018-09-01T14:01:43.857Z,20.3
2018-09-01T14:02:45.261Z,20.3
2018-09-01T14:03:46.740Z,20.4
2018-09-01T14:04:48.149Z,20.4
2018-09-01T14:05:49.615Z,20.5
2018-09-01T14:06:51.026Z,20.6
2018-09-01T14:07:52.510Z,20.8
2018-09-01T14:08:53.962Z,20.8
2018-09-01T14:09:55.588Z,21.1
2018-09-01T14:10:56.994Z,21.2
2018-09-01T14:11:58.469Z,21.2
2018-09-01T14:12:59.877Z,21.4
2018-09-01T14:14:01.383Z,21.5
2018-09-01T14:15:02.788Z,21.5
2018-09-01T14:16:04.225Z,21.5
2018-09-01T14:17:05.640Z,21.4
2018-09-01T14:18:07.113Z,21.4
2018-09-01T14:19:08.514Z,21.4
2018-09-01T14:20:09.996Z,21.4
2018-09-01T14:21:11.406Z,21.3
2018-09-01T14:22:12.795Z,21.3
2018-09-01T14:23:14.471Z,21.3
2018-09-01T14:24:15.877Z,21.3
2018-09-01T14:25:17.282Z,21.3
2018-09-01T14:26:18.941Z,21.3
2018-09-01T14:27:20.391Z,21.3
2018-09-01T14:28:21.768Z,21.3
2018-09-01T14:29:23.486Z,21.2
2018-09-01T14:30:24.901Z,21.3
2018-09-01T14:31:26.635Z,21.3
2018-09-01T14:32:28.017Z,21.3
2018-09-01T14:33:29.435Z,21.3
2018-09-01T14:34:31.076Z,21.3
2018-09-01T14:35:32.478Z,21.4
2018-09-01T14:36:34.010Z,21.3
2018-09-01T14:37:35.633Z,21.3
2018-09-01T14:38:37.101Z,21.4
2018-09-01T14:39:38.508Z,21.4
2018-09-01T14:40:40.127Z,21.4
2018-09-01T14:41:41.564Z,21.4
2018-09-01T14:42:42.990Z,21.4
2018-09-01T14:43:44.877Z,21.4
2018-09-01T14:44:46.297Z,21.4
2018-09-01T14:45:47.724Z,21.4
2018-09-01T14:46:49.437Z,21.2
2018-09-01T14:47:50.826Z,21.1
2018-09-01T14:48:52.238Z,20.9
2018-09-01T14:49:53.916Z,20.9
2018-09-01T14:50:55.345Z,20.8
2018-09-01T14:51:56.775Z,20.6
2018-09-01T14:52:58.436Z,20.6
2018-09-01T14:53:59.849Z,20.6
2018-09-01T14:55:01.533Z,20.5
2018-09-01T14:56:02.956Z,20.5
2018-09-01T14:57:04.543Z,20.5
2018-09-01T14:58:05.951Z,20.5
2018-09-01T14:59:07.389Z,20.5
2018-09-01T15:00:08.802Z,20.6
2018-09-01T15:01:10.496Z,20.6
2018-09-01T15:02:11.989Z,20.6
2018-09-01T15:03:13.560Z,20.7
2018-09-01T15:04:15.015Z,20.7
2018-09-01T15:05:16.647Z,20.7
2018-09-01T15:06:18.060Z,20.7
2018-09-01T15:07:19.525Z,20.7
2018-09-01T15:08:20.931Z,20.9
2018-09-01T15:09:22.450Z,20.9
2018-09-01T15:10:23.871Z,20.8
2018-09-01T15:11:25.501Z,20.8
2018-09-01T15:12:26.905Z,20.8
2018-09-01T15:13:28.449Z,20.9
2018-09-01T15:14:29.849Z,20.7
2018-09-01T15:15:31.459Z,20.7